sensor_id;sensor_type;location;lat;lon;timestamp;P1;durP1;ratioP1;P2;durP2;ratioP2
52033;SDS011;38045;52.988;6.536;2023-12-28T00:00:06;5.13;;;3.58;;
52033;SDS011;38045;52.988;6.536;2023-12-28T00:02:32;9.13;;;4.53;;
52033;SDS011;38045;52.988;6.536;2023-12-28T00:04:58;3.40;;;3.10;;
52033;SDS011;38045;52.988;6.536;2023-12-28T00:07:23;3.58;;;3.28;;
52033;SDS011;38045;52.988;6.536;2023-12-28T00:09:49;3.15;;;2.85;;
52033;SDS011;38045;52.988;6.536;2023-12-28T00:12:14;5.25;;;2.72;;
52033;SDS011;38045;52.988;6.536;2023-12-28T00:14:40;3.53;;;3.25;;
52033;SDS011;38045;52.988;6.536;2023-12-28T00:17:06;5.20;;;2.10;;
52033;SDS011;38045;52.988;6.536;2023-12-28T00:19:31;3.55;;;3.25;;
52033;SDS011;38045;52.988;6.536;2023-12-28T00:21:57;3.92;;;2.85;;
52033;SDS011;38045;52.988;6.536;2023-12-28T00:24:22;6.68;;;4.13;;
52033;SDS011;38045;52.988;6.536;2023-12-28T00:26:48;5.93;;;2.47;;
52033;SDS011;38045;52.988;6.536;2023-12-28T00:29:13;6.30;;;2.63;;
52033;SDS011;38045;52.988;6.536;2023-12-28T00:31:39;6.32;;;3.63;;
52033;SDS011;38045;52.988;6.536;2023-12-28T00:34:05;5.05;;;4.18;;
52033;SDS011;38045;52.988;6.536;2023-12-28T00:36:30;7.40;;;4.18;;
52033;SDS011;38045;52.988;6.536;2023-12-28T00:38:56;5.40;;;3.90;;
52033;SDS011;38045;52.988;6.536;2023-12-28T00:41:22;4.82;;;4.28;;
52033;SDS011;38045;52.988;6.536;2023-12-28T00:43:47;5.85;;;3.85;;
52033;SDS011;38045;52.988;6.536;2023-12-28T00:46:13;3.67;;;2.80;;
52033;SDS011;38045;52.988;6.536;2023-12-28T00:48:39;5.47;;;4.05;;
52033;SDS011;38045;52.988;6.536;2023-12-28T00:51:04;4.05;;;3.00;;
52033;SDS011;38045;52.988;6.536;2023-12-28T00:53:30;4.53;;;4.07;;
52033;SDS011;38045;52.988;6.536;2023-12-28T00:55:56;5.22;;;3.08;;
52033;SDS011;38045;52.988;6.536;2023-12-28T00:58:21;5.43;;;3.53;;
52033;SDS011;38045;52.988;6.536;2023-12-28T01:00:47;3.45;;;3.08;;
52033;SDS011;38045;52.988;6.536;2023-12-28T01:03:12;2.90;;;2.67;;
52033;SDS011;38045;52.988;6.536;2023-12-28T01:05:38;5.65;;;2.45;;
52033;SDS011;38045;52.988;6.536;2023-12-28T01:08:04;5.10;;;2.85;;
52033;SDS011;38045;52.988;6.536;2023-12-28T01:10:29;7.13;;;3.97;;
52033;SDS011;38045;52.988;6.536;2023-12-28T01:12:55;12.20;;;3.05;;
52033;SDS011;38045;52.988;6.536;2023-12-28T01:15:21;6.47;;;3.60;;
52033;SDS011;38045;52.988;6.536;2023-12-28T01:17:46;4.80;;;2.55;;
52033;SDS011;38045;52.988;6.536;2023-12-28T01:20:12;2.17;;;2.00;;
52033;SDS011;38045;52.988;6.536;2023-12-28T01:22:38;5.82;;;3.80;;
52033;SDS011;38045;52.988;6.536;2023-12-28T01:25:03;4.45;;;3.67;;
52033;SDS011;38045;52.988;6.536;2023-12-28T01:27:29;6.93;;;3.35;;
52033;SDS011;38045;52.988;6.536;2023-12-28T01:29:55;3.40;;;2.25;;
52033;SDS011;38045;52.988;6.536;2023-12-28T01:32:21;2.90;;;2.67;;
52033;SDS011;38045;52.988;6.536;2023-12-28T01:34:46;6.05;;;3.28;;
52033;SDS011;38045;52.988;6.536;2023-12-28T01:37:12;5.97;;;3.20;;
52033;SDS011;38045;52.988;6.536;2023-12-28T01:39:38;6.43;;;3.75;;
52033;SDS011;38045;52.988;6.536;2023-12-28T01:42:04;5.53;;;2.33;;
52033;SDS011;38045;52.988;6.536;2023-12-28T01:44:29;2.80;;;2.60;;
52033;SDS011;38045;52.988;6.536;2023-12-28T01:46:55;4.72;;;2.35;;
52033;SDS011;38045;52.988;6.536;2023-12-28T01:49:21;8.65;;;2.40;;
52033;SDS011;38045;52.988;6.536;2023-12-28T01:51:48;9.57;;;4.18;;
52033;SDS011;38045;52.988;6.536;2023-12-28T01:54:15;3.78;;;3.10;;
52033;SDS011;38045;52.988;6.536;2023-12-28T01:56:41;3.67;;;2.78;;
52033;SDS011;38045;52.988;6.536;2023-12-28T01:59:08;6.15;;;3.80;;
52033;SDS011;38045;52.988;6.536;2023-12-28T02:01:34;5.60;;;3.10;;
52033;SDS011;38045;52.988;6.536;2023-12-28T02:03:59;8.82;;;4.38;;
52033;SDS011;38045;52.988;6.536;2023-12-28T02:06:26;10.10;;;4.57;;
52033;SDS011;38045;52.988;6.536;2023-12-28T02:08:51;3.60;;;3.08;;
52033;SDS011;38045;52.988;6.536;2023-12-28T02:11:17;6.75;;;3.60;;
52033;SDS011;38045;52.988;6.536;2023-12-28T02:13:44;7.40;;;2.67;;
52033;SDS011;38045;52.988;6.536;2023-12-28T02:16:11;4.70;;;2.63;;
52033;SDS011;38045;52.988;6.536;2023-12-28T02:18:44;4.97;;;2.45;;
52033;SDS011;38045;52.988;6.536;2023-12-28T02:21:12;7.60;;;3.42;;
52033;SDS011;38045;52.988;6.536;2023-12-28T02:23:39;8.93;;;3.85;;
52033;SDS011;38045;52.988;6.536;2023-12-28T02:26:04;6.63;;;4.22;;
52033;SDS011;38045;52.988;6.536;2023-12-28T02:28:30;7.60;;;3.42;;
52033;SDS011;38045;52.988;6.536;2023-12-28T02:30:56;9.93;;;3.05;;
52033;SDS011;38045;52.988;6.536;2023-12-28T02:33:25;5.75;;;2.47;;
52033;SDS011;38045;52.988;6.536;2023-12-28T02:36:04;8.82;;;3.35;;
52033;SDS011;38045;52.988;6.536;2023-12-28T02:38:32;6.13;;;2.28;;
52033;SDS011;38045;52.988;6.536;2023-12-28T02:41:01;5.72;;;3.40;;
52033;SDS011;38045;52.988;6.536;2023-12-28T02:43:28;12.10;;;3.63;;
52033;SDS011;38045;52.988;6.536;2023-12-28T02:45:54;6.82;;;3.38;;
52033;SDS011;38045;52.988;6.536;2023-12-28T02:48:19;12.70;;;3.80;;
52033;SDS011;38045;52.988;6.536;2023-12-28T02:50:45;9.32;;;2.55;;
52033;SDS011;38045;52.988;6.536;2023-12-28T02:53:13;10.20;;;3.15;;
52033;SDS011;38045;52.988;6.536;2023-12-28T02:55:38;7.10;;;2.95;;
52033;SDS011;38045;52.988;6.536;2023-12-28T02:58:04;9.73;;;3.35;;
52033;SDS011;38045;52.988;6.536;2023-12-28T03:00:30;9.70;;;3.15;;
52033;SDS011;38045;52.988;6.536;2023-12-28T03:02:56;6.05;;;2.65;;
52033;SDS011;38045;52.988;6.536;2023-12-28T03:05:21;5.50;;;2.00;;
52033;SDS011;38045;52.988;6.536;2023-12-28T03:07:47;6.03;;;1.98;;
52033;SDS011;38045;52.988;6.536;2023-12-28T03:10:13;9.75;;;4.03;;
52033;SDS011;38045;52.988;6.536;2023-12-28T03:12:38;7.93;;;3.20;;
52033;SDS011;38045;52.988;6.536;2023-12-28T03:15:04;9.35;;;2.53;;
52033;SDS011;38045;52.988;6.536;2023-12-28T03:17:30;11.27;;;3.95;;
52033;SDS011;38045;52.988;6.536;2023-12-28T03:19:58;12.75;;;4.82;;
52033;SDS011;38045;52.988;6.536;2023-12-28T03:22:24;10.50;;;2.28;;
52033;SDS011;38045;52.988;6.536;2023-12-28T03:24:50;2.83;;;2.08;;
52033;SDS011;38045;52.988;6.536;2023-12-28T03:27:15;6.18;;;3.20;;
52033;SDS011;38045;52.988;6.536;2023-12-28T03:29:41;9.23;;;2.72;;
52033;SDS011;38045;52.988;6.536;2023-12-28T03:32:08;7.65;;;3.65;;
52033;SDS011;38045;52.988;6.536;2023-12-28T03:34:34;8.63;;;3.58;;
52033;SDS011;38045;52.988;6.536;2023-12-28T03:37:00;6.57;;;2.33;;
52033;SDS011;38045;52.988;6.536;2023-12-28T03:39:25;14.93;;;4.50;;
52033;SDS011;38045;52.988;6.536;2023-12-28T03:41:51;10.27;;;3.83;;
52033;SDS011;38045;52.988;6.536;2023-12-28T03:44:18;7.63;;;2.38;;
52033;SDS011;38045;52.988;6.536;2023-12-28T03:46:47;3.20;;;2.45;;
52033;SDS011;38045;52.988;6.536;2023-12-28T03:49:14;8.57;;;2.25;;
52033;SDS011;38045;52.988;6.536;2023-12-28T03:51:47;6.07;;;2.20;;
52033;SDS011;38045;52.988;6.536;2023-12-28T03:54:17;23.38;;;4.10;;
52033;SDS011;38045;52.988;6.536;2023-12-28T03:56:43;6.00;;;3.10;;
52033;SDS011;38045;52.988;6.536;2023-12-28T03:59:09;8.95;;;3.35;;
52033;SDS011;38045;52.988;6.536;2023-12-28T04:01:35;12.98;;;3.38;;
52033;SDS011;38045;52.988;6.536;2023-12-28T04:04:01;7.00;;;1.92;;
52033;SDS011;38045;52.988;6.536;2023-12-28T04:06:27;12.27;;;3.80;;
52033;SDS011;38045;52.988;6.536;2023-12-28T04:08:52;4.80;;;2.65;;
52033;SDS011;38045;52.988;6.536;2023-12-28T04:11:18;9.07;;;3.78;;
52033;SDS011;38045;52.988;6.536;2023-12-28T04:13:44;11.98;;;3.80;;
52033;SDS011;38045;52.988;6.536;2023-12-28T04:16:13;6.97;;;2.80;;
52033;SDS011;38045;52.988;6.536;2023-12-28T04:18:40;5.68;;;2.53;;
52033;SDS011;38045;52.988;6.536;2023-12-28T04:23:35;6.90;;;2.92;;
52033;SDS011;38045;52.988;6.536;2023-12-28T04:26:01;8.45;;;3.85;;
52033;SDS011;38045;52.988;6.536;2023-12-28T04:28:27;3.10;;;2.15;;
52033;SDS011;38045;52.988;6.536;2023-12-28T04:30:52;9.75;;;3.00;;
52033;SDS011;38045;52.988;6.536;2023-12-28T04:33:18;12.25;;;4.07;;
52033;SDS011;38045;52.988;6.536;2023-12-28T04:35:44;9.80;;;2.80;;
52033;SDS011;38045;52.988;6.536;2023-12-28T04:38:10;7.97;;;2.08;;
52033;SDS011;38045;52.988;6.536;2023-12-28T04:40:35;11.77;;;4.28;;
52033;SDS011;38045;52.988;6.536;2023-12-28T04:43:01;15.52;;;3.92;;
52033;SDS011;38045;52.988;6.536;2023-12-28T04:45:27;11.70;;;3.97;;
52033;SDS011;38045;52.988;6.536;2023-12-28T04:47:53;11.07;;;2.78;;
52033;SDS011;38045;52.988;6.536;2023-12-28T04:50:18;14.90;;;4.85;;
52033;SDS011;38045;52.988;6.536;2023-12-28T04:52:44;6.95;;;4.10;;
52033;SDS011;38045;52.988;6.536;2023-12-28T04:55:10;11.00;;;2.05;;
52033;SDS011;38045;52.988;6.536;2023-12-28T04:57:35;7.70;;;2.90;;
52033;SDS011;38045;52.988;6.536;2023-12-28T05:00:01;3.15;;;2.65;;
52033;SDS011;38045;52.988;6.536;2023-12-28T05:02:28;4.53;;;2.65;;
52033;SDS011;38045;52.988;6.536;2023-12-28T05:04:53;10.75;;;2.63;;
52033;SDS011;38045;52.988;6.536;2023-12-28T05:07:19;9.57;;;2.95;;
52033;SDS011;38045;52.988;6.536;2023-12-28T05:09:44;9.80;;;3.60;;
52033;SDS011;38045;52.988;6.536;2023-12-28T05:12:10;14.15;;;3.63;;
52033;SDS011;38045;52.988;6.536;2023-12-28T05:14:35;12.93;;;3.47;;
52033;SDS011;38045;52.988;6.536;2023-12-28T05:17:01;9.38;;;3.63;;
52033;SDS011;38045;52.988;6.536;2023-12-28T05:19:27;9.88;;;3.03;;
52033;SDS011;38045;52.988;6.536;2023-12-28T05:21:52;13.45;;;2.70;;
52033;SDS011;38045;52.988;6.536;2023-12-28T05:24:18;9.32;;;3.53;;
52033;SDS011;38045;52.988;6.536;2023-12-28T05:26:43;12.20;;;3.30;;
52033;SDS011;38045;52.988;6.536;2023-12-28T05:29:09;6.63;;;2.35;;
52033;SDS011;38045;52.988;6.536;2023-12-28T05:31:34;12.75;;;3.20;;
52033;SDS011;38045;52.988;6.536;2023-12-28T05:34:00;11.20;;;3.85;;
52033;SDS011;38045;52.988;6.536;2023-12-28T05:36:26;6.90;;;3.65;;
52033;SDS011;38045;52.988;6.536;2023-12-28T05:38:51;7.55;;;2.83;;
52033;SDS011;38045;52.988;6.536;2023-12-28T05:41:17;6.47;;;1.88;;
52033;SDS011;38045;52.988;6.536;2023-12-28T05:43:42;15.43;;;3.47;;
52033;SDS011;38045;52.988;6.536;2023-12-28T05:46:08;10.77;;;2.33;;
52033;SDS011;38045;52.988;6.536;2023-12-28T05:48:33;8.50;;;4.20;;
52033;SDS011;38045;52.988;6.536;2023-12-28T05:50:59;12.73;;;2.97;;
52033;SDS011;38045;52.988;6.536;2023-12-28T05:53:25;12.65;;;3.65;;
52033;SDS011;38045;52.988;6.536;2023-12-28T05:55:52;11.95;;;3.97;;
52033;SDS011;38045;52.988;6.536;2023-12-28T05:58:17;13.77;;;3.42;;
52033;SDS011;38045;52.988;6.536;2023-12-28T06:00:43;14.88;;;3.85;;
52033;SDS011;38045;52.988;6.536;2023-12-28T06:03:09;7.85;;;3.15;;
52033;SDS011;38045;52.988;6.536;2023-12-28T06:05:34;10.65;;;3.20;;
52033;SDS011;38045;52.988;6.536;2023-12-28T06:08:00;8.23;;;2.22;;
52033;SDS011;38045;52.988;6.536;2023-12-28T06:10:25;8.15;;;2.42;;
52033;SDS011;38045;52.988;6.536;2023-12-28T06:12:51;14.00;;;3.08;;
52033;SDS011;38045;52.988;6.536;2023-12-28T06:15:16;8.15;;;1.98;;
52033;SDS011;38045;52.988;6.536;2023-12-28T06:17:42;9.75;;;2.88;;
52033;SDS011;38045;52.988;6.536;2023-12-28T06:20:08;13.80;;;2.80;;
52033;SDS011;38045;52.988;6.536;2023-12-28T06:22:37;14.77;;;4.40;;
52033;SDS011;38045;52.988;6.536;2023-12-28T06:25:03;14.45;;;3.22;;
52033;SDS011;38045;52.988;6.536;2023-12-28T06:27:29;7.18;;;3.05;;
52033;SDS011;38045;52.988;6.536;2023-12-28T06:29:55;10.13;;;3.17;;
52033;SDS011;38045;52.988;6.536;2023-12-28T06:32:21;6.57;;;2.80;;
52033;SDS011;38045;52.988;6.536;2023-12-28T06:34:46;11.23;;;2.45;;
52033;SDS011;38045;52.988;6.536;2023-12-28T06:37:13;12.70;;;2.15;;
52033;SDS011;38045;52.988;6.536;2023-12-28T06:39:39;21.60;;;3.97;;
52033;SDS011;38045;52.988;6.536;2023-12-28T06:42:05;14.70;;;4.15;;
52033;SDS011;38045;52.988;6.536;2023-12-28T06:44:30;14.63;;;3.75;;
52033;SDS011;38045;52.988;6.536;2023-12-28T06:46:56;16.42;;;3.95;;
52033;SDS011;38045;52.988;6.536;2023-12-28T06:49:23;20.05;;;3.83;;
52033;SDS011;38045;52.988;6.536;2023-12-28T06:51:49;13.82;;;3.75;;
52033;SDS011;38045;52.988;6.536;2023-12-28T06:54:14;10.77;;;3.58;;
52033;SDS011;38045;52.988;6.536;2023-12-28T06:56:41;8.05;;;3.28;;
52033;SDS011;38045;52.988;6.536;2023-12-28T06:59:06;19.48;;;5.13;;
52033;SDS011;38045;52.988;6.536;2023-12-28T07:01:32;7.82;;;3.60;;
52033;SDS011;38045;52.988;6.536;2023-12-28T07:03:58;13.98;;;2.20;;
52033;SDS011;38045;52.988;6.536;2023-12-28T07:06:24;9.93;;;4.68;;
52033;SDS011;38045;52.988;6.536;2023-12-28T07:08:50;13.60;;;4.20;;
52033;SDS011;38045;52.988;6.536;2023-12-28T07:11:16;15.98;;;3.63;;
52033;SDS011;38045;52.988;6.536;2023-12-28T07:13:41;15.00;;;4.20;;
52033;SDS011;38045;52.988;6.536;2023-12-28T07:16:07;14.40;;;4.85;;
52033;SDS011;38045;52.988;6.536;2023-12-28T07:18:32;18.50;;;5.20;;
52033;SDS011;38045;52.988;6.536;2023-12-28T07:20:58;19.15;;;4.43;;
52033;SDS011;38045;52.988;6.536;2023-12-28T07:23:25;15.57;;;4.78;;
52033;SDS011;38045;52.988;6.536;2023-12-28T07:25:50;8.38;;;2.70;;
52033;SDS011;38045;52.988;6.536;2023-12-28T07:28:16;11.25;;;4.68;;
52033;SDS011;38045;52.988;6.536;2023-12-28T07:30:42;13.65;;;3.40;;
52033;SDS011;38045;52.988;6.536;2023-12-28T07:33:08;12.40;;;4.70;;
52033;SDS011;38045;52.988;6.536;2023-12-28T07:35:33;12.93;;;4.97;;
52033;SDS011;38045;52.988;6.536;2023-12-28T07:37:59;19.80;;;6.28;;
52033;SDS011;38045;52.988;6.536;2023-12-28T07:40:24;10.60;;;3.38;;
52033;SDS011;38045;52.988;6.536;2023-12-28T07:42:50;6.90;;;3.22;;
52033;SDS011;38045;52.988;6.536;2023-12-28T07:45:16;13.68;;;4.60;;
52033;SDS011;38045;52.988;6.536;2023-12-28T07:47:43;17.15;;;5.00;;
52033;SDS011;38045;52.988;6.536;2023-12-28T07:50:08;21.63;;;4.97;;
52033;SDS011;38045;52.988;6.536;2023-12-28T07:52:35;12.10;;;4.82;;
52033;SDS011;38045;52.988;6.536;2023-12-28T07:55:02;15.30;;;3.05;;
52033;SDS011;38045;52.988;6.536;2023-12-28T07:57:29;13.02;;;3.92;;
52033;SDS011;38045;52.988;6.536;2023-12-28T07:59:56;11.43;;;4.05;;
52033;SDS011;38045;52.988;6.536;2023-12-28T08:02:21;9.18;;;2.70;;
52033;SDS011;38045;52.988;6.536;2023-12-28T08:04:47;18.55;;;5.88;;
52033;SDS011;38045;52.988;6.536;2023-12-28T08:07:13;16.08;;;4.70;;
52033;SDS011;38045;52.988;6.536;2023-12-28T08:09:39;20.25;;;5.93;;
52033;SDS011;38045;52.988;6.536;2023-12-28T08:12:05;25.20;;;6.45;;
52033;SDS011;38045;52.988;6.536;2023-12-28T08:14:30;10.65;;;2.90;;
52033;SDS011;38045;52.988;6.536;2023-12-28T08:16:56;15.43;;;4.25;;
52033;SDS011;38045;52.988;6.536;2023-12-28T08:19:22;21.95;;;5.28;;
52033;SDS011;38045;52.988;6.536;2023-12-28T08:21:47;22.60;;;6.70;;
52033;SDS011;38045;52.988;6.536;2023-12-28T08:24:13;25.55;;;6.30;;
52033;SDS011;38045;52.988;6.536;2023-12-28T08:26:39;25.48;;;6.40;;
52033;SDS011;38045;52.988;6.536;2023-12-28T08:29:05;7.30;;;2.85;;
52033;SDS011;38045;52.988;6.536;2023-12-28T08:31:30;21.10;;;5.70;;
52033;SDS011;38045;52.988;6.536;2023-12-28T08:33:56;23.25;;;7.50;;
52033;SDS011;38045;52.988;6.536;2023-12-28T08:36:21;21.42;;;4.30;;
52033;SDS011;38045;52.988;6.536;2023-12-28T08:38:47;20.35;;;6.18;;
52033;SDS011;38045;52.988;6.536;2023-12-28T08:41:19;24.52;;;5.30;;
52033;SDS011;38045;52.988;6.536;2023-12-28T08:43:52;24.17;;;4.72;;
52033;SDS011;38045;52.988;6.536;2023-12-28T08:46:21;16.70;;;5.53;;
52033;SDS011;38045;52.988;6.536;2023-12-28T08:48:49;18.33;;;5.20;;
52033;SDS011;38045;52.988;6.536;2023-12-28T08:51:15;30.60;;;6.70;;
52033;SDS011;38045;52.988;6.536;2023-12-28T08:53:41;12.10;;;4.95;;
52033;SDS011;38045;52.988;6.536;2023-12-28T08:56:17;18.38;;;3.72;;
52033;SDS011;38045;52.988;6.536;2023-12-28T08:58:46;22.58;;;5.78;;
52033;SDS011;38045;52.988;6.536;2023-12-28T09:01:16;13.63;;;5.80;;
52033;SDS011;38045;52.988;6.536;2023-12-28T09:03:42;25.30;;;4.95;;
52033;SDS011;38045;52.988;6.536;2023-12-28T09:06:08;15.32;;;4.93;;
52033;SDS011;38045;52.988;6.536;2023-12-28T09:08:33;18.48;;;5.10;;
52033;SDS011;38045;52.988;6.536;2023-12-28T09:11:00;19.40;;;3.97;;
52033;SDS011;38045;52.988;6.536;2023-12-28T09:13:25;30.15;;;7.47;;
52033;SDS011;38045;52.988;6.536;2023-12-28T09:15:51;21.52;;;5.93;;
52033;SDS011;38045;52.988;6.536;2023-12-28T09:18:16;14.43;;;3.60;;
52033;SDS011;38045;52.988;6.536;2023-12-28T09:20:42;28.23;;;6.97;;
52033;SDS011;38045;52.988;6.536;2023-12-28T09:23:08;13.30;;;4.63;;
52033;SDS011;38045;52.988;6.536;2023-12-28T09:25:35;29.58;;;7.45;;
52033;SDS011;38045;52.988;6.536;2023-12-28T09:28:03;15.45;;;4.90;;
52033;SDS011;38045;52.988;6.536;2023-12-28T09:30:29;17.90;;;5.13;;
52033;SDS011;38045;52.988;6.536;2023-12-28T09:32:55;21.80;;;5.68;;
52033;SDS011;38045;52.988;6.536;2023-12-28T09:35:21;20.77;;;5.30;;
52033;SDS011;38045;52.988;6.536;2023-12-28T09:37:46;19.17;;;6.43;;
52033;SDS011;38045;52.988;6.536;2023-12-28T09:40:12;14.55;;;5.68;;
52033;SDS011;38045;52.988;6.536;2023-12-28T09:42:40;13.32;;;4.68;;
52033;SDS011;38045;52.988;6.536;2023-12-28T09:45:14;18.58;;;5.38;;
52033;SDS011;38045;52.988;6.536;2023-12-28T09:47:40;25.25;;;5.50;;
52033;SDS011;38045;52.988;6.536;2023-12-28T09:50:08;17.85;;;6.38;;
52033;SDS011;38045;52.988;6.536;2023-12-28T09:52:35;25.15;;;6.28;;
52033;SDS011;38045;52.988;6.536;2023-12-28T09:55:01;16.58;;;5.90;;
52033;SDS011;38045;52.988;6.536;2023-12-28T09:57:27;30.20;;;6.45;;
52033;SDS011;38045;52.988;6.536;2023-12-28T09:59:53;11.43;;;3.03;;
52033;SDS011;38045;52.988;6.536;2023-12-28T10:02:19;21.55;;;5.65;;
52033;SDS011;38045;52.988;6.536;2023-12-28T10:04:45;15.05;;;5.57;;
52033;SDS011;38045;52.988;6.536;2023-12-28T10:07:10;20.50;;;5.53;;
52033;SDS011;38045;52.988;6.536;2023-12-28T10:09:36;27.83;;;7.63;;
52033;SDS011;38045;52.988;6.536;2023-12-28T10:12:02;11.75;;;3.75;;
52033;SDS011;38045;52.988;6.536;2023-12-28T10:14:28;19.70;;;5.93;;
52033;SDS011;38045;52.988;6.536;2023-12-28T10:16:54;23.13;;;7.05;;
52033;SDS011;38045;52.988;6.536;2023-12-28T10:19:22;21.40;;;4.50;;
52033;SDS011;38045;52.988;6.536;2023-12-28T10:21:48;21.50;;;5.53;;
52033;SDS011;38045;52.988;6.536;2023-12-28T10:24:14;12.38;;;2.85;;
52033;SDS011;38045;52.988;6.536;2023-12-28T10:26:40;19.70;;;5.50;;
52033;SDS011;38045;52.988;6.536;2023-12-28T10:29:05;19.58;;;6.80;;
52033;SDS011;38045;52.988;6.536;2023-12-28T10:31:31;24.83;;;5.95;;
52033;SDS011;38045;52.988;6.536;2023-12-28T10:33:59;25.63;;;7.47;;
52033;SDS011;38045;52.988;6.536;2023-12-28T10:36:27;29.50;;;5.03;;
52033;SDS011;38045;52.988;6.536;2023-12-28T10:38:53;21.60;;;6.43;;
52033;SDS011;38045;52.988;6.536;2023-12-28T10:41:19;11.13;;;3.33;;
52033;SDS011;38045;52.988;6.536;2023-12-28T10:43:49;19.92;;;6.13;;
52033;SDS011;38045;52.988;6.536;2023-12-28T10:46:27;18.08;;;5.43;;
52033;SDS011;38045;52.988;6.536;2023-12-28T10:48:57;25.70;;;6.50;;
52033;SDS011;38045;52.988;6.536;2023-12-28T10:51:25;18.13;;;6.05;;
52033;SDS011;38045;52.988;6.536;2023-12-28T10:56:44;17.75;;;3.97;;
52033;SDS011;38045;52.988;6.536;2023-12-28T11:01:57;10.60;;;4.00;;
52033;SDS011;38045;52.988;6.536;2023-12-28T11:07:09;16.95;;;3.63;;
52033;SDS011;38045;52.988;6.536;2023-12-28T11:09:37;13.98;;;4.82;;
52033;SDS011;38045;52.988;6.536;2023-12-28T11:12:07;21.63;;;6.10;;
52033;SDS011;38045;52.988;6.536;2023-12-28T11:14:35;10.57;;;3.70;;
52033;SDS011;38045;52.988;6.536;2023-12-28T11:17:04;14.43;;;4.70;;
52033;SDS011;38045;52.988;6.536;2023-12-28T11:19:30;11.77;;;4.20;;
52033;SDS011;38045;52.988;6.536;2023-12-28T11:21:56;29.02;;;5.60;;
52033;SDS011;38045;52.988;6.536;2023-12-28T11:24:25;22.38;;;7.28;;
52033;SDS011;38045;52.988;6.536;2023-12-28T11:26:53;17.67;;;4.65;;
52033;SDS011;38045;52.988;6.536;2023-12-28T11:29:22;20.15;;;5.95;;
52033;SDS011;38045;52.988;6.536;2023-12-28T11:31:57;20.90;;;5.40;;
52033;SDS011;38045;52.988;6.536;2023-12-28T11:34:33;15.98;;;4.03;;
52033;SDS011;38045;52.988;6.536;2023-12-28T11:37:08;21.30;;;5.65;;
52033;SDS011;38045;52.988;6.536;2023-12-28T11:39:39;25.30;;;7.38;;
52033;SDS011;38045;52.988;6.536;2023-12-28T11:42:08;13.13;;;5.13;;
52033;SDS011;38045;52.988;6.536;2023-12-28T11:44:42;15.18;;;5.38;;
52033;SDS011;38045;52.988;6.536;2023-12-28T11:47:30;12.20;;;3.33;;
52033;SDS011;38045;52.988;6.536;2023-12-28T11:49:55;17.30;;;5.03;;
52033;SDS011;38045;52.988;6.536;2023-12-28T11:52:32;16.02;;;5.18;;
52033;SDS011;38045;52.988;6.536;2023-12-28T11:54:59;16.95;;;4.40;;
52033;SDS011;38045;52.988;6.536;2023-12-28T11:57:25;13.15;;;3.80;;
52033;SDS011;38045;52.988;6.536;2023-12-28T11:59:56;22.65;;;6.47;;
52033;SDS011;38045;52.988;6.536;2023-12-28T12:02:26;23.52;;;5.30;;
52033;SDS011;38045;52.988;6.536;2023-12-28T12:04:53;23.23;;;5.90;;
52033;SDS011;38045;52.988;6.536;2023-12-28T12:07:20;22.77;;;4.70;;
52033;SDS011;38045;52.988;6.536;2023-12-28T12:09:45;18.17;;;6.38;;
52033;SDS011;38045;52.988;6.536;2023-12-28T12:12:11;16.02;;;6.15;;
52033;SDS011;38045;52.988;6.536;2023-12-28T12:14:36;21.88;;;6.40;;
52033;SDS011;38045;52.988;6.536;2023-12-28T12:17:02;19.95;;;5.85;;
52033;SDS011;38045;52.988;6.536;2023-12-28T12:19:29;12.77;;;2.42;;
52033;SDS011;38045;52.988;6.536;2023-12-28T12:21:55;19.38;;;5.45;;
52033;SDS011;38045;52.988;6.536;2023-12-28T12:24:21;20.08;;;5.85;;
52033;SDS011;38045;52.988;6.536;2023-12-28T12:26:49;17.27;;;5.90;;
52033;SDS011;38045;52.988;6.536;2023-12-28T12:29:18;24.75;;;5.28;;
52033;SDS011;38045;52.988;6.536;2023-12-28T12:31:44;12.00;;;4.07;;
52033;SDS011;38045;52.988;6.536;2023-12-28T12:34:12;19.05;;;5.30;;
52033;SDS011;38045;52.988;6.536;2023-12-28T12:36:42;25.70;;;6.28;;
52033;SDS011;38045;52.988;6.536;2023-12-28T12:39:09;19.67;;;5.68;;
52033;SDS011;38045;52.988;6.536;2023-12-28T12:41:36;14.20;;;5.30;;
52033;SDS011;38045;52.988;6.536;2023-12-28T12:44:02;21.00;;;5.15;;
52033;SDS011;38045;52.988;6.536;2023-12-28T12:46:29;26.02;;;5.22;;
52033;SDS011;38045;52.988;6.536;2023-12-28T12:48:59;20.88;;;4.43;;
52033;SDS011;38045;52.988;6.536;2023-12-28T12:51:27;9.95;;;4.00;;
52033;SDS011;38045;52.988;6.536;2023-12-28T12:53:59;14.23;;;3.75;;
52033;SDS011;38045;52.988;6.536;2023-12-28T12:56:29;17.35;;;7.00;;
52033;SDS011;38045;52.988;6.536;2023-12-28T12:58:55;14.65;;;5.78;;
52033;SDS011;38045;52.988;6.536;2023-12-28T13:01:21;18.35;;;3.85;;
52033;SDS011;38045;52.988;6.536;2023-12-28T13:03:48;13.70;;;3.63;;
52033;SDS011;38045;52.988;6.536;2023-12-28T13:06:14;17.95;;;5.13;;
52033;SDS011;38045;52.988;6.536;2023-12-28T13:08:40;14.35;;;4.55;;
52033;SDS011;38045;52.988;6.536;2023-12-28T13:11:06;19.02;;;5.43;;
52033;SDS011;38045;52.988;6.536;2023-12-28T13:13:34;22.20;;;6.77;;
52033;SDS011;38045;52.988;6.536;2023-12-28T13:16:00;20.23;;;7.80;;
52033;SDS011;38045;52.988;6.536;2023-12-28T13:18:26;18.23;;;4.18;;
52033;SDS011;38045;52.988;6.536;2023-12-28T13:20:52;18.92;;;6.07;;
52033;SDS011;38045;52.988;6.536;2023-12-28T13:23:18;13.15;;;4.80;;
52033;SDS011;38045;52.988;6.536;2023-12-28T13:25:43;16.75;;;5.72;;
52033;SDS011;38045;52.988;6.536;2023-12-28T13:28:09;30.70;;;8.25;;
52033;SDS011;38045;52.988;6.536;2023-12-28T13:30:35;22.13;;;5.10;;
52033;SDS011;38045;52.988;6.536;2023-12-28T13:33:03;21.17;;;4.20;;
52033;SDS011;38045;52.988;6.536;2023-12-28T13:35:28;8.70;;;5.25;;
52033;SDS011;38045;52.988;6.536;2023-12-28T13:37:54;14.95;;;5.30;;
52033;SDS011;38045;52.988;6.536;2023-12-28T13:40:20;13.45;;;4.53;;
52033;SDS011;38045;52.988;6.536;2023-12-28T13:42:46;18.67;;;4.85;;
52033;SDS011;38045;52.988;6.536;2023-12-28T13:45:11;19.35;;;5.18;;
52033;SDS011;38045;52.988;6.536;2023-12-28T13:47:37;16.98;;;5.95;;
52033;SDS011;38045;52.988;6.536;2023-12-28T13:50:03;24.88;;;5.13;;
52033;SDS011;38045;52.988;6.536;2023-12-28T13:52:29;17.38;;;4.20;;
52033;SDS011;38045;52.988;6.536;2023-12-28T13:54:55;23.23;;;4.68;;
52033;SDS011;38045;52.988;6.536;2023-12-28T13:57:20;24.42;;;5.65;;
52033;SDS011;38045;52.988;6.536;2023-12-28T13:59:46;26.05;;;6.32;;
52033;SDS011;38045;52.988;6.536;2023-12-28T14:02:12;15.98;;;6.57;;
52033;SDS011;38045;52.988;6.536;2023-12-28T14:04:37;22.75;;;7.68;;
52033;SDS011;38045;52.988;6.536;2023-12-28T14:07:03;21.90;;;6.20;;
52033;SDS011;38045;52.988;6.536;2023-12-28T14:09:28;16.38;;;3.45;;
52033;SDS011;38045;52.988;6.536;2023-12-28T14:11:55;14.95;;;3.40;;
52033;SDS011;38045;52.988;6.536;2023-12-28T14:14:21;27.98;;;7.40;;
52033;SDS011;38045;52.988;6.536;2023-12-28T14:16:46;10.85;;;4.28;;
52033;SDS011;38045;52.988;6.536;2023-12-28T14:19:12;21.13;;;7.00;;
52033;SDS011;38045;52.988;6.536;2023-12-28T14:21:38;21.27;;;6.10;;
52033;SDS011;38045;52.988;6.536;2023-12-28T14:24:04;12.30;;;4.05;;
52033;SDS011;38045;52.988;6.536;2023-12-28T14:26:31;22.85;;;6.90;;
52033;SDS011;38045;52.988;6.536;2023-12-28T14:28:58;14.20;;;3.97;;
52033;SDS011;38045;52.988;6.536;2023-12-28T14:31:31;18.77;;;5.40;;
52033;SDS011;38045;52.988;6.536;2023-12-28T14:33:57;17.05;;;5.53;;
52033;SDS011;38045;52.988;6.536;2023-12-28T14:36:27;11.85;;;3.15;;
52033;SDS011;38045;52.988;6.536;2023-12-28T14:39:00;19.33;;;6.63;;
52033;SDS011;38045;52.988;6.536;2023-12-28T14:41:26;20.38;;;3.45;;
52033;SDS011;38045;52.988;6.536;2023-12-28T14:43:52;27.55;;;6.72;;